Time;durP1;ratioP1;P1;durP2;ratioP2;P2;SDS_P1;SDS_P2;PMS_P1;PMS_P2;Temp;Humidity;BMP_temperature;BMP_pressure;BME280_temperature;BME280_humidity;BME280_pressure;Samples;Min_cycle;Max_cycle;Signal;HPM_P1;HPM_P2
2024/01/07 00:00:45;;;;;;;35.30;17.88;;;;;;;0.25;100.00;101588.13;5069483;28;20139;-54
2024/01/07 00:03:14;;;;;;;42.47;22.15;;;;;;;0.19;100.00;101575.22;5069201;28;20131;-52
2024/01/07 00:05:42;;;;;;;38.17;19.23;;;;;;;0.24;100.00;101578.63;5072500;28;20091;-54
2024/01/07 00:08:10;;;;;;;35.00;18.63;;;;;;;0.33;100.00;101589.72;5071374;28;20052;-50
2024/01/07 00:10:40;;;;;;;40.58;19.52;;;;;;;0.28;100.00;101585.50;5069331;28;20530;-52
2024/01/07 00:13:08;;;;;;;38.85;20.63;;;;;;;0.30;100.00;101586.31;5068532;28;20554;-51
2024/01/07 00:15:36;;;;;;;40.35;21.08;;;;;;;0.32;100.00;101589.75;5071828;28;20075;-51
2024/01/07 00:18:04;;;;;;;42.28;20.08;;;;;;;0.33;100.00;101597.50;5071749;28;20059;-54
2024/01/07 00:20:33;;;;;;;41.42;21.23;;;;;;;0.27;100.00;101599.28;5069662;28;20511;-51
2024/01/07 00:23:01;;;;;;;41.53;20.67;;;;;;;0.27;100.00;101599.28;5069391;28;20039;-50
2024/01/07 00:25:29;;;;;;;44.08;20.92;;;;;;;0.25;100.00;101590.69;5069890;28;20143;-50
2024/01/07 00:27:58;;;;;;;44.10;22.33;;;;;;;0.24;100.00;101596.75;5072228;28;20054;-52
2024/01/07 00:30:27;;;;;;;45.10;21.10;;;;;;;0.27;100.00;101604.47;5068868;28;20544;-50
2024/01/07 00:32:55;;;;;;;43.78;21.88;;;;;;;0.26;100.00;101602.75;5067891;28;20444;-54
2024/01/07 00:35:23;;;;;;;45.15;22.70;;;;;;;0.28;100.00;101601.00;5071760;28;20119;-52
2024/01/07 00:37:51;;;;;;;45.72;20.88;;;;;;;0.36;100.00;101609.56;5070157;28;20040;-47
2024/01/07 00:40:19;;;;;;;40.40;20.83;;;;;;;0.35;100.00;101607.84;5068634;28;20492;-46
2024/01/07 00:42:51;;;;;;;42.30;21.00;;;;;;;0.36;100.00;101614.72;5071635;28;20043;-45
2024/01/07 00:45:21;;;;;;;44.45;21.83;;;;;;;0.40;100.00;101615.56;5070284;28;20094;-46
2024/01/07 00:47:50;;;;;;;48.50;23.25;;;;;;;0.32;100.00;101620.81;5071294;28;20083;-49
2024/01/07 00:50:21;;;;;;;49.42;22.75;;;;;;;0.31;100.00;101621.69;5071279;28;20565;-50
2024/01/07 00:52:49;;;;;;;48.97;23.10;;;;;;;0.35;100.00;101625.94;5071508;28;20110;-47
2024/01/07 00:55:18;;;;;;;48.58;22.70;;;;;;;0.30;100.00;101622.53;5071242;28;20060;-46
2024/01/07 00:57:46;;;;;;;49.53;23.42;;;;;;;0.32;100.00;101631.16;5067900;28;20500;-46
2024/01/07 01:00:14;;;;;;;51.10;23.08;;;;;;;0.35;100.00;101625.09;5068555;28;20051;-46
2024/01/07 01:02:44;;;;;;;43.25;22.83;;;;;;;0.40;100.00;101625.91;5069981;28;20384;-48
2024/01/07 01:05:12;;;;;;;46.33;23.13;;;;;;;0.40;100.00;101639.72;5071536;28;20048;-48
2024/01/07 01:07:40;;;;;;;41.90;21.88;;;;;;;0.35;100.00;101643.22;5074183;28;20044;-47
2024/01/07 01:10:09;;;;;;;40.20;21.08;;;;;;;0.38;100.00;101646.63;5075227;28;20049;-46
2024/01/07 01:12:38;;;;;;;36.97;19.38;;;;;;;0.37;100.00;101638.88;5071560;28;20055;-47
2024/01/07 01:15:07;;;;;;;35.00;19.52;;;;;;;0.30;100.00;101646.72;5073876;28;20127;-48
2024/01/07 01:17:37;;;;;;;36.13;19.73;;;;;;;0.35;100.00;101649.25;5075580;28;20048;-47
2024/01/07 01:20:08;;;;;;;37.72;20.50;;;;;;;0.29;100.00;101657.06;5075310;28;20119;-45
2024/01/07 01:22:37;;;;;;;36.80;19.77;;;;;;;0.26;100.00;101647.63;5075283;28;20049;-47
2024/01/07 01:25:06;;;;;;;37.15;19.55;;;;;;;0.28;100.00;101655.34;5075224;28;20044;-46
2024/01/07 01:27:34;;;;;;;34.83;19.42;;;;;;;0.27;100.00;101663.97;5075265;28;20056;-44
2024/01/07 01:30:06;;;;;;;34.15;19.85;;;;;;;0.28;100.00;101657.94;5075177;28;20060;-47
2024/01/07 01:32:34;;;;;;;34.50;19.33;;;;;;;0.21;100.00;101666.63;5075016;28;20052;-45
2024/01/07 01:35:02;;;;;;;35.30;19.23;;;;;;;0.21;100.00;101659.72;5075034;28;20491;-47
2024/01/07 01:37:32;;;;;;;34.40;18.42;;;;;;;0.27;100.00;101666.56;5075012;28;20048;-47
2024/01/07 01:40:00;;;;;;;37.35;19.63;;;;;;;0.35;100.00;101672.53;5075016;28;20048;-46
2024/01/07 01:42:29;;;;;;;30.55;17.38;;;;;;;0.24;100.00;101677.81;5075410;28;20435;-46
2024/01/07 01:44:59;;;;;;;34.92;19.15;;;;;;;0.23;100.00;101670.06;5072230;28;20162;-45
2024/01/07 01:47:27;;;;;;;35.88;19.83;;;;;;;0.19;100.00;101684.75;5070965;28;20052;-46
2024/01/07 01:49:56;;;;;;;36.58;20.13;;;;;;;0.16;100.00;101679.59;5073764;28;20055;-46
2024/01/07 01:52:24;;;;;;;32.05;18.08;;;;;;;0.16;100.00;101688.25;5074588;28;20511;-46
2024/01/07 01:54:55;;;;;;;38.22;19.50;;;;;;;0.21;100.00;101689.94;5073300;28;20056;-45
2024/01/07 01:57:29;;;;;;;38.42;19.98;;;;;;;0.17;100.00;101691.66;5074571;28;20118;-45
2024/01/07 02:00:02;;;;;;;39.95;20.40;;;;;;;0.14;100.00;101696.88;5074117;28;20109;-46
2024/01/07 02:02:33;;;;;;;44.38;20.52;;;;;;;0.17;100.00;101697.69;5070683;28;20131;-46
2024/01/07 02:05:02;;;;;;;41.92;20.13;;;;;;;0.16;100.00;101698.59;5071594;28;20052;-46
2024/01/07 02:07:31;;;;;;;40.13;20.05;;;;;;;0.14;100.00;101702.91;5074486;28;20044;-46
2024/01/07 02:10:01;;;;;;;40.90;21.25;;;;;;;0.13;100.00;101706.34;5074106;28;20048;-47
2024/01/07 02:12:30;;;;;;;40.92;20.33;;;;;;;0.17;100.00;101705.44;5073932;28;20072;-48
2024/01/07 02:14:58;;;;;;;39.80;20.30;;;;;;;0.12;100.00;101704.66;5074266;28;20372;-47
2024/01/07 02:17:26;;;;;;;41.97;20.98;;;;;;;0.12;100.00;101709.81;5073590;28;20048;-47
2024/01/07 02:19:54;;;;;;;46.53;23.50;;;;;;;0.16;100.00;101719.28;5074039;28;20131;-46
2024/01/07 02:22:22;;;;;;;39.33;20.73;;;;;;;0.19;100.00;101714.94;5073913;28;20056;-46
2024/01/07 02:24:55;;;;;;;42.78;22.80;;;;;;;0.12;100.00;101715.00;5071188;28;20037;-47
2024/01/07 02:27:23;;;;;;;44.78;21.35;;;;;;;0.08;100.00;101718.47;5071466;28;20117;-47
2024/01/07 02:29:51;;;;;;;41.72;20.30;;;;;;;0.07;100.00;101716.75;5072826;28;20113;-48
2024/01/07 02:32:22;;;;;;;38.20;19.55;;;;;;;0.07;100.00;101716.75;5072094;28;20157;-46
2024/01/07 02:34:50;;;;;;;38.70;19.33;;;;;;;0.08;100.00;101715.91;5070100;28;20621;-46
2024/01/07 02:37:18;;;;;;;35.22;18.95;;;;;;;0.05;100.00;101715.91;5073652;28;20431;-47
2024/01/07 02:39:46;;;;;;;33.53;18.08;;;;;;;0.09;100.00;101721.91;5072654;28;20134;-47
2024/01/07 02:42:29;;;;;;;39.08;19.83;;;;;;;0.09;100.00;101725.34;5074371;28;20392;-54
2024/01/07 02:44:59;;;;;;;39.22;19.05;;;;;;;0.07;100.00;101727.09;5073869;28;20032;-51
2024/01/07 02:47:27;;;;;;;34.75;18.30;;;;;;;0.10;100.00;101732.25;5074160;28;20124;-51
2024/01/07 02:49:58;;;;;;;36.38;18.75;;;;;;;0.08;100.00;101734.00;5071591;28;20048;-52
2024/01/07 02:52:26;;;;;;;34.20;18.58;;;;;;;0.09;100.00;101733.13;5070487;28;20084;-51
2024/01/07 02:54:55;;;;;;;31.02;17.65;;;;;;;0.05;100.00;101739.19;5071061;28;20045;-50
2024/01/07 02:57:23;;;;;;;29.80;16.40;;;;;;;0.05;100.00;101744.34;5072345;28;20059;-50
2024/01/07 02:59:53;;;;;;;27.70;15.07;;;;;;;0.12;100.00;101740.88;5073554;28;20139;-52
2024/01/07 03:02:21;;;;;;;30.67;16.23;;;;;;;0.09;100.00;101751.22;5069978;28;20052;-49
2024/01/07 03:04:50;;;;;;;27.15;15.20;;;;;;;0.09;100.00;101750.38;5071357;28;20032;-53
2024/01/07 03:07:18;;;;;;;30.20;15.65;;;;;;;0.04;100.00;101753.00;5072447;28;20052;-50
2024/01/07 03:09:46;;;;;;;28.80;16.15;;;;;;;0.07;100.00;101749.50;5071176;28;20059;-53
2024/01/07 03:12:16;;;;;;;26.98;15.95;;;;;;;0.11;100.00;101754.66;5072363;28;20044;-54
2024/01/07 03:14:44;;;;;;;24.58;14.80;;;;;;;0.10;100.00;101763.28;5071718;28;20041;-47
2024/01/07 03:17:14;;;;;;;24.05;14.38;;;;;;;0.01;100.00;101754.75;5072823;28;20099;-45
2024/01/07 03:19:43;;;;;;;24.80;14.00;;;;;;;0.00;100.00;101756.47;5070988;28;20055;-50
2024/01/07 03:22:11;;;;;;;22.50;13.48;;;;;;;0.01;100.00;101763.34;5071963;28;20051;-46
2024/01/07 03:24:39;;;;;;;21.88;12.45;;;;;;;-0.04;100.00;101768.56;5073136;28;20118;-51
2024/01/07 03:27:07;;;;;;;22.15;12.02;;;;;;;-0.03;100.00;101772.00;5073275;28;20044;-53
2024/01/07 03:29:36;;;;;;;23.80;13.07;;;;;;;-0.14;100.00;101771.22;5072861;28;20048;-51
2024/01/07 03:32:05;;;;;;;23.50;12.88;;;;;;;-0.07;100.00;101768.59;5072330;28;20135;-50
2024/01/07 03:34:34;;;;;;;22.92;13.63;;;;;;;-0.08;100.00;101778.91;5069751;28;20044;-51
2024/01/07 03:37:02;;;;;;;21.60;13.20;;;;;;;-0.10;100.00;101775.50;5069971;28;20052;-52
2024/01/07 03:39:34;;;;;;;24.02;13.77;;;;;;;-0.10;100.00;101771.16;5069840;28;20047;-52
2024/01/07 03:42:02;;;;;;;22.20;14.25;;;;;;;-0.08;100.00;101778.91;5067996;28;20052;-52
2024/01/07 03:44:33;;;;;;;24.80;14.10;;;;;;;-0.11;100.00;101773.78;5069765;28;20518;-52
2024/01/07 03:47:01;;;;;;;22.38;13.48;;;;;;;-0.15;100.00;101777.25;5071425;28;20058;-54
2024/01/07 03:49:29;;;;;;;22.38;14.35;;;;;;;-0.20;100.00;101772.97;5072591;28;20048;-50
2024/01/07 03:51:58;;;;;;;23.17;13.52;;;;;;;-0.20;100.00;101780.72;5072533;28;20135;-51
2024/01/07 03:54:27;;;;;;;23.02;14.50;;;;;;;-0.23;100.00;101774.69;5072614;28;20049;-51
2024/01/07 03:56:58;;;;;;;22.38;13.65;;;;;;;-0.24;100.00;101781.59;5072641;28;20048;-51
2024/01/07 03:59:26;;;;;;;21.92;13.65;;;;;;;-0.31;100.00;101785.09;5071475;28;20123;-50
2024/01/07 04:01:57;;;;;;;24.10;14.45;;;;;;;-0.30;100.00;101789.41;5068085;28;20383;-50
2024/01/07 04:04:25;;;;;;;23.25;15.15;;;;;;;-0.29;100.00;101790.25;5071309;28;20116;-51
2024/01/07 04:06:53;;;;;;;24.33;14.35;;;;;;;-0.28;100.00;101790.25;5072584;28;20040;-47
2024/01/07 04:09:22;;;;;;;25.80;14.70;;;;;;;-0.26;100.00;101790.22;5072270;28;20072;-47
2024/01/07 04:11:51;;;;;;;23.08;14.00;;;;;;;-0.21;100.00;101791.91;5070593;28;20056;-47
2024/01/07 04:14:19;;;;;;;23.48;14.32;;;;;;;-0.23;100.00;101796.25;5068248;28;20079;-46
2024/01/07 04:16:47;;;;;;;22.85;14.50;;;;;;;-0.23;100.00;101796.25;5070794;28;20056;-50
2024/01/07 04:19:15;;;;;;;23.23;14.13;;;;;;;-0.26;100.00;101800.56;5072086;28;20119;-49
2024/01/07 04:21:47;;;;;;;22.98;14.75;;;;;;;-0.20;100.00;101806.56;5072204;28;20557;-46
2024/01/07 04:24:15;;;;;;;24.45;14.85;;;;;;;-0.24;100.00;101804.88;5069934;28;20148;-47
2024/01/07 04:26:44;;;;;;;24.70;15.30;;;;;;;-0.29;100.00;101814.38;5068270;28;20499;-45
2024/01/07 04:29:13;;;;;;;22.13;13.90;;;;;;;-0.31;100.00;101818.69;5069709;28;20052;-46
2024/01/07 04:31:41;;;;;;;26.25;15.50;;;;;;;-0.29;100.00;101822.13;5068666;28;20095;-54
2024/01/07 04:34:09;;;;;;;23.00;14.02;;;;;;;-0.26;100.00;101824.72;5068350;28;20055;-51
2024/01/07 04:36:38;;;;;;;26.25;15.25;;;;;;;-0.19;100.00;101831.56;5069565;28;20059;-52
2024/01/07 04:39:06;;;;;;;24.13;14.50;;;;;;;-0.25;100.00;101829.00;5072213;28;20131;-54
2024/01/07 04:41:34;;;;;;;24.80;15.93;;;;;;;-0.27;100.00;101822.13;5069371;28;20036;-54
2024/01/07 04:44:04;;;;;;;26.60;15.10;;;;;;;-0.24;100.00;101832.47;5068007;28;20161;-50
2024/01/07 04:46:35;;;;;;;22.60;15.13;;;;;;;-0.26;100.00;101829.88;5068463;28;20102;-51
2024/01/07 04:49:03;;;;;;;24.00;15.48;;;;;;;-0.24;100.00;101829.88;5069221;28;20056;-53
2024/01/07 04:51:31;;;;;;;23.25;14.73;;;;;;;-0.22;100.00;101838.47;5070327;28;20510;-52
2024/01/07 04:53:59;;;;;;;24.02;14.65;;;;;;;-0.24;100.00;101835.91;5068684;28;20101;-51
2024/01/07 04:56:27;;;;;;;21.60;14.02;;;;;;;-0.25;100.00;101841.94;5069197;28;20063;-52
2024/01/07 04:58:55;;;;;;;24.60;14.00;;;;;;;-0.28;100.00;101839.38;5071673;28;20045;-50
2024/01/07 05:01:25;;;;;;;21.25;14.00;;;;;;;-0.25;100.00;101848.84;5071334;28;20040;-49
2024/01/07 05:03:53;;;;;;;22.77;14.35;;;;;;;-0.26;100.00;101845.41;5068708;28;20052;-51
2024/01/07 05:06:21;;;;;;;25.73;14.75;;;;;;;-0.32;100.00;101847.16;5069443;28;20044;-51
2024/01/07 05:08:50;;;;;;;25.45;15.65;;;;;;;-0.30;100.00;101848.88;5069128;28;20619;-52
2024/01/07 05:11:18;;;;;;;25.15;15.32;;;;;;;-0.35;100.00;101858.34;5068868;28;20044;-52
2024/01/07 05:13:46;;;;;;;25.52;14.90;;;;;;;-0.31;100.00;101859.19;5071055;28;20061;-53
2024/01/07 05:16:20;;;;;;;20.63;13.77;;;;;;;-0.29;100.00;101868.66;5068138;28;20037;-53
2024/01/07 05:18:49;;;;;;;23.70;15.15;;;;;;;-0.29;100.00;101862.66;5068929;28;20144;-54
2024/01/07 05:21:19;;;;;;;24.42;14.50;;;;;;;-0.24;100.00;101871.25;5068016;28;20060;-53
2024/01/07 05:23:47;;;;;;;21.08;13.68;;;;;;;-0.21;100.00;101873.81;5068820;28;20052;-50
2024/01/07 05:26:16;;;;;;;23.92;14.13;;;;;;;-0.25;100.00;101879.88;5068853;28;20040;-52
2024/01/07 05:28:44;;;;;;;23.77;15.05;;;;;;;-0.26;100.00;101879.00;5067886;28;20044;-53
2024/01/07 05:31:15;;;;;;;25.13;15.80;;;;;;;-0.22;100.00;101885.03;5067347;28;20048;-51
2024/01/07 05:33:44;;;;;;;22.35;14.07;;;;;;;-0.21;100.00;101889.34;5067243;28;20063;-53
2024/01/07 05:36:14;;;;;;;21.00;13.32;;;;;;;-0.26;100.00;101894.53;5068285;28;20124;-50
2024/01/07 05:38:43;;;;;;;18.45;12.65;;;;;;;-0.30;100.00;101899.69;5068584;28;20046;-51
2024/01/07 05:41:11;;;;;;;21.52;13.60;;;;;;;-0.33;100.00;101895.38;5068162;28;20052;-53
2024/01/07 05:43:39;;;;;;;21.58;12.68;;;;;;;-0.35;100.00;101916.09;5068864;28;20076;-50
2024/01/07 05:46:07;;;;;;;17.98;11.45;;;;;;;-0.34;100.00;101909.22;5071235;28;20037;-50
2024/01/07 05:48:43;;;;;;;20.38;11.90;;;;;;;-0.35;100.00;101915.22;5069729;28;20048;-51
2024/01/07 05:51:11;;;;;;;16.17;9.98;;;;;;;-0.36;100.00;101914.34;5069081;28;20052;-51
2024/01/07 05:53:41;;;;;;;16.60;10.48;;;;;;;-0.38;100.00;101915.25;5069761;28;20052;-52
2024/01/07 05:56:11;;;;;;;16.02;11.13;;;;;;;-0.36;100.00;101931.59;5071594;28;20380;-53
2024/01/07 05:58:39;;;;;;;17.15;9.60;;;;;;;-0.35;100.00;101929.00;5070884;28;20056;-51
2024/01/07 06:01:09;;;;;;;16.98;10.85;;;;;;;-0.40;100.00;101933.31;5071010;28;20051;-50
2024/01/07 06:03:37;;;;;;;18.60;12.05;;;;;;;-0.37;100.00;101935.03;5071727;28;20504;-51
2024/01/07 06:06:06;;;;;;;19.10;12.40;;;;;;;-0.41;100.00;101938.50;5072899;28;20055;-51
2024/01/07 06:08:34;;;;;;;18.27;12.05;;;;;;;-0.39;100.00;101945.38;5074647;28;20044;-53
2024/01/07 06:11:04;;;;;;;17.33;11.65;;;;;;;-0.38;100.00;101949.72;5071187;28;20052;-53
2024/01/07 06:13:32;;;;;;;19.10;12.30;;;;;;;-0.44;100.00;101951.44;5070689;28;20571;-51
2024/01/07 06:16:00;;;;;;;18.60;11.30;;;;;;;-0.43;100.00;101958.34;5070795;28;20506;-50
2024/01/07 06:18:28;;;;;;;18.13;11.98;;;;;;;-0.40;100.00;101958.31;5073905;28;20048;-53
2024/01/07 06:20:56;;;;;;;17.10;11.20;;;;;;;-0.41;100.00;101959.19;5074009;28;20480;-50
2024/01/07 06:23:25;;;;;;;16.70;10.05;;;;;;;-0.44;100.00;101970.38;5073016;28;20503;-52
2024/01/07 06:25:53;;;;;;;17.25;10.52;;;;;;;-0.40;100.00;101969.50;5071481;28;20650;-50
2024/01/07 06:28:22;;;;;;;15.98;10.15;;;;;;;-0.39;100.00;101976.41;5073317;28;20107;-53
2024/01/07 06:30:50;;;;;;;17.95;11.02;;;;;;;-0.42;100.00;101975.56;5074288;28;20105;-53
2024/01/07 06:33:20;;;;;;;16.80;11.23;;;;;;;-0.49;100.00;101979.00;5074092;28;20068;-51
2024/01/07 06:35:48;;;;;;;17.88;11.75;;;;;;;-0.53;100.00;101989.34;5074181;28;20052;-50
2024/01/07 06:38:17;;;;;;;21.17;12.48;;;;;;;-0.54;100.00;101995.38;5072124;28;20653;-52
2024/01/07 06:40:45;;;;;;;17.67;10.27;;;;;;;-0.63;100.00;101995.38;5071339;28;20364;-53
2024/01/07 06:43:13;;;;;;;16.30;9.93;;;;;;;-0.58;100.00;102003.16;5070373;28;20044;-51
2024/01/07 06:45:43;;;;;;;17.58;10.93;;;;;;;-0.61;100.00;102006.59;5073735;28;20044;-50
2024/01/07 06:48:11;;;;;;;16.42;10.30;;;;;;;-0.63;100.00;102007.44;5073910;28;20048;-50
2024/01/07 06:50:39;;;;;;;18.00;10.98;;;;;;;-0.59;100.00;102022.09;5073892;28;20127;-51
2024/01/07 06:53:08;;;;;;;15.48;10.18;;;;;;;-0.64;100.00;102014.34;5071571;28;20076;-51
2024/01/07 06:55:36;;;;;;;15.10;9.98;;;;;;;-0.61;100.00;102022.09;5071017;28;20052;-50
2024/01/07 06:58:05;;;;;;;15.23;10.02;;;;;;;-0.60;100.00;102012.59;5069913;28;20044;-50
2024/01/07 07:00:33;;;;;;;18.55;11.02;;;;;;;-0.56;100.00;102017.78;5071487;28;20119;-50
2024/01/07 07:03:03;;;;;;;18.75;10.95;;;;;;;-0.57;100.00;102023.81;5073621;28;20045;-50
2024/01/07 07:05:31;;;;;;;16.73;10.55;;;;;;;-0.55;100.00;102021.22;5071299;28;20044;-52
2024/01/07 07:08:03;;;;;;;18.58;11.35;;;;;;;-0.55;100.00;102031.56;5070309;28;20055;-50
2024/01/07 07:10:31;;;;;;;20.20;12.23;;;;;;;-0.60;100.00;102030.69;5073184;28;20048;-51
2024/01/07 07:13:00;;;;;;;16.75;10.68;;;;;;;-0.58;100.00;102035.00;5072254;28;20149;-53
2024/01/07 07:15:28;;;;;;;16.98;10.68;;;;;;;-0.59;100.00;102035.88;5070481;28;20566;-51
2024/01/07 07:17:58;;;;;;;16.70;11.25;;;;;;;-0.59;100.00;102046.19;5069301;28;20067;-53
2024/01/07 07:20:28;;;;;;;17.95;10.88;;;;;;;-0.61;100.00;102042.78;5070492;28;20094;-50
2024/01/07 07:22:56;;;;;;;16.65;11.13;;;;;;;-0.61;100.00;102047.94;5070259;28;20893;-53
2024/01/07 07:25:24;;;;;;;17.75;10.38;;;;;;;-0.64;100.00;102053.13;5070802;28;20097;-50
2024/01/07 07:27:53;;;;;;;15.40;10.60;;;;;;;-0.65;100.00;102069.47;5073365;28;20380;-52
2024/01/07 07:30:24;;;;;;;16.13;9.85;;;;;;;-0.68;100.00;102070.31;5071118;28;20123;-50
2024/01/07 07:32:53;;;;;;;15.60;10.35;;;;;;;-0.70;100.00;102079.78;5069565;28;20048;-51
2024/01/07 07:35:21;;;;;;;15.80;9.50;;;;;;;-0.70;100.00;102081.50;5073126;28;20098;-50
2024/01/07 07:37:50;;;;;;;15.20;9.70;;;;;;;-0.64;100.00;102086.72;5072340;28;20191;-51
2024/01/07 07:40:19;;;;;;;14.07;9.23;;;;;;;-0.66;100.00;102080.66;5069958;28;20091;-50
2024/01/07 07:42:47;;;;;;;13.88;8.93;;;;;;;-0.69;100.00;102089.25;5069355;28;20052;-50
2024/01/07 07:45:15;;;;;;;13.60;8.98;;;;;;;-0.60;100.00;102100.47;5071830;28;20047;-51
2024/01/07 07:47:45;;;;;;;14.70;9.38;;;;;;;-0.62;100.00;102108.22;5072300;28;20040;-51
2024/01/07 07:50:13;;;;;;;15.32;10.02;;;;;;;-0.59;100.00;102097.03;5069995;28;20056;-49
2024/01/07 07:52:43;;;;;;;13.68;9.77;;;;;;;-0.61;100.00;102107.38;5069711;28;20542;-52
2024/01/07 07:55:13;;;;;;;15.57;10.15;;;;;;;-0.70;100.00;102108.22;5069637;28;20048;-52
2024/01/07 07:57:41;;;;;;;19.10;10.65;;;;;;;-0.69;100.00;102119.44;5067734;28;20495;-52
2024/01/07 08:00:12;;;;;;;15.13;10.20;;;;;;;-0.69;100.00;102116.84;5068126;28;20053;-50
2024/01/07 08:02:41;;;;;;;15.20;9.57;;;;;;;-0.68;100.00;102114.25;5068652;28;20976;-52
2024/01/07 08:05:09;;;;;;;14.40;9.75;;;;;;;-0.62;100.00;102128.06;5070409;28;20044;-51
2024/01/07 08:07:37;;;;;;;13.25;9.23;;;;;;;-0.71;100.00;102123.72;5070883;28;20036;-49
2024/01/07 08:10:07;;;;;;;14.35;9.18;;;;;;;-0.71;100.00;102126.28;5069455;28;20474;-50
2024/01/07 08:12:37;;;;;;;14.32;9.50;;;;;;;-0.76;100.00;102131.47;5070235;28;20103;-50
2024/01/07 08:15:07;;;;;;;15.55;9.40;;;;;;;-0.76;100.00;102140.94;5068876;28;20103;-51
2024/01/07 08:17:35;;;;;;;14.30;9.95;;;;;;;-0.76;100.00;102140.94;5068966;28;20040;-51
2024/01/07 08:20:04;;;;;;;12.82;9.02;;;;;;;-0.79;100.00;102151.25;5069748;28;20044;-51
2024/01/07 08:22:32;;;;;;;15.52;10.68;;;;;;;-0.78;100.00;102143.50;5068862;28;20048;-51
2024/01/07 08:25:00;;;;;;;14.32;9.63;;;;;;;-0.78;100.00;102148.66;5068910;28;20040;-53
2024/01/07 08:27:29;;;;;;;14.27;9.68;;;;;;;-0.78;100.00;102155.56;5068126;28;20071;-53
2024/01/07 08:29:59;;;;;;;13.48;9.23;;;;;;;-0.79;100.00;102159.00;5068282;28;20102;-53
2024/01/07 08:32:27;;;;;;;15.30;9.57;;;;;;;-0.81;100.00;102161.59;5067551;28;20511;-50
2024/01/07 08:34:55;;;;;;;13.48;9.90;;;;;;;-0.82;100.00;102164.16;5070046;28;20178;-52
2024/01/07 08:37:23;;;;;;;13.30;8.98;;;;;;;-0.81;100.00;102176.22;5069995;28;20094;-50
2024/01/07 08:39:51;;;;;;;14.05;8.85;;;;;;;-0.89;100.00;102181.34;5070203;28;20056;-50
2024/01/07 08:42:20;;;;;;;15.57;9.50;;;;;;;-0.88;100.00;102176.19;5070819;28;20831;-50
2024/01/07 08:44:51;;;;;;;12.98;9.15;;;;;;;-0.89;100.00;102186.53;5068773;28;20041;-54
2024/01/07 08:47:20;;;;;;;12.15;8.55;;;;;;;-0.94;100.00;102183.94;5070096;28;20119;-53
2024/01/07 08:49:48;;;;;;;15.68;9.57;;;;;;;-0.94;100.00;102195.97;5069729;28;20045;-50
2024/01/07 08:52:16;;;;;;;13.77;8.73;;;;;;;-0.95;100.00;102189.94;5068534;28;20067;-52
2024/01/07 08:54:45;;;;;;;14.32;8.45;;;;;;;-0.94;100.00;102198.56;5069013;28;20045;-52
2024/01/07 08:57:13;;;;;;;14.05;9.15;;;;;;;-0.94;100.00;102201.13;5069506;28;20495;-49
2024/01/07 08:59:41;;;;;;;13.10;8.20;;;;;;;-0.93;100.00;102206.31;5071533;28;20465;-51
2024/01/07 09:02:09;;;;;;;13.75;9.40;;;;;;;-0.97;100.00;102208.88;5069508;28;20044;-50
2024/01/07 09:04:39;;;;;;;11.93;8.65;;;;;;;-0.95;100.00;102210.63;5068218;28;20470;-51
2024/01/07 09:07:07;;;;;;;13.10;8.30;;;;;;;-0.93;100.00;102215.78;5068789;28;20056;-50
2024/01/07 09:09:38;;;;;;;13.65;9.15;;;;;;;-0.91;100.00;102212.34;5070864;28;20045;-51
2024/01/07 09:12:07;;;;;;;13.23;8.57;;;;;;;-0.97;100.00;102220.06;5066429;28;20540;-49
2024/01/07 09:14:35;;;;;;;13.15;8.20;;;;;;;-0.98;100.00;102217.47;5068106;28;20048;-50
2024/01/07 09:17:03;;;;;;;13.35;9.48;;;;;;;-1.00;100.00;102221.78;5066144;28;20052;-53
2024/01/07 09:19:31;;;;;;;14.55;8.20;;;;;;;-0.93;100.00;102221.81;5068317;28;20495;-52
2024/01/07 09:22:02;;;;;;;15.80;8.75;;;;;;;-0.94;100.00;102233.00;5071522;28;20052;-52
2024/01/07 09:24:30;;;;;;;13.05;8.38;;;;;;;-0.98;100.00;102236.44;5070075;28;20052;-50
2024/01/07 09:26:59;;;;;;;14.63;8.73;;;;;;;-0.94;100.00;102237.28;5067866;28;20095;-53
2024/01/07 09:29:27;;;;;;;15.00;8.43;;;;;;;-0.85;100.00;102239.94;5072079;28;20052;-50
2024/01/07 09:31:55;;;;;;;12.27;7.97;;;;;;;-0.83;100.00;102252.84;5074526;28;20043;-52
2024/01/07 09:34:23;;;;;;;12.98;7.18;;;;;;;-0.83;100.00;102242.53;5075238;28;20503;-50
2024/01/07 09:36:52;;;;;;;12.68;7.85;;;;;;;-0.83;100.00;102251.16;5075257;28;20388;-50
2024/01/07 09:39:22;;;;;;;13.98;7.82;;;;;;;-0.76;100.00;102254.63;5075464;28;20396;-51
2024/01/07 09:41:50;;;;;;;13.80;8.07;;;;;;;-0.81;100.00;102259.75;5073126;28;20044;-50
2024/01/07 09:44:19;;;;;;;14.50;7.53;;;;;;;-0.73;100.00;102267.56;5071780;28;20048;-51
2024/01/07 09:46:51;;;;;;;12.93;7.88;;;;;;;-0.76;100.00;102267.56;5073772;28;20052;-50
2024/01/07 09:49:19;;;;;;;11.85;8.07;;;;;;;-0.76;100.00;102270.97;5071786;28;20385;-50
2024/01/07 09:51:51;;;;;;;15.68;7.88;;;;;;;-0.77;100.00;102281.31;5070572;28;20068;-50
2024/01/07 09:54:23;;;;;;;15.13;8.38;;;;;;;-0.78;100.00;102284.75;5070594;28;20053;-53
2024/01/07 09:56:59;;;;;;;13.70;7.95;;;;;;;-0.84;100.00;102293.34;5071313;28;20507;-51
2024/01/07 09:59:29;;;;;;;13.10;7.85;;;;;;;-0.80;100.00;102297.66;5071446;28;20452;-50
2024/01/07 10:01:57;;;;;;;12.50;7.22;;;;;;;-0.81;100.00;102292.50;5071197;28;20080;-50
2024/01/07 10:04:27;;;;;;;12.90;6.93;;;;;;;-0.82;100.00;102290.75;5071481;28;20052;-51
2024/01/07 10:06:55;;;;;;;10.90;6.35;;;;;;;-0.80;100.00;102304.56;5070461;28;20123;-53
2024/01/07 10:09:28;;;;;;;12.00;6.88;;;;;;;-0.78;100.00;102288.19;5071812;28;20053;-51
2024/01/07 10:11:57;;;;;;;11.50;6.63;;;;;;;-0.80;100.00;102307.16;5071097;28;20044;-49
2024/01/07 10:14:25;;;;;;;10.90;6.40;;;;;;;-0.81;100.00;102318.31;5072261;28;20051;-50
2024/01/07 10:16:56;;;;;;;10.27;5.38;;;;;;;-0.78;100.00;102300.25;5074573;28;20044;-53
2024/01/07 10:19:25;;;;;;;10.20;6.38;;;;;;;-0.79;100.00;102303.69;5074614;28;20484;-50
2024/01/07 10:22:03;;;;;;;11.73;5.80;;;;;;;-0.74;100.00;102309.75;5074149;28;20054;-53
2024/01/07 10:24:40;;;;;;;9.65;6.47;;;;;;;-0.65;100.00;102308.94;5071292;28;20043;-49
2024/01/07 10:27:10;;;;;;;11.95;6.25;;;;;;;-0.58;100.00;102308.97;5071056;28;20048;-51
2024/01/07 10:29:38;;;;;;;10.85;5.57;;;;;;;-0.51;100.00;102315.88;5071176;28;20121;-53
2024/01/07 10:32:07;;;;;;;12.50;6.13;;;;;;;-0.44;100.00;102321.94;5070662;28;20079;-52
2024/01/07 10:34:36;;;;;;;10.73;5.78;;;;;;;-0.39;100.00;102311.66;5070958;28;20400;-51
2024/01/07 10:37:05;;;;;;;12.93;6.28;;;;;;;-0.32;100.00;102318.56;5073398;28;20490;-50
2024/01/07 10:39:34;;;;;;;9.07;4.93;;;;;;;-0.36;100.00;102322.00;5069801;28;20045;-50
2024/01/07 10:42:05;;;;;;;7.63;4.75;;;;;;;-0.38;100.00;102318.53;5070741;28;20044;-51
2024/01/07 10:44:35;;;;;;;8.75;4.90;;;;;;;-0.39;100.00;102322.84;5070852;28;20140;-51
2024/01/07 10:47:08;;;;;;;8.57;4.85;;;;;;;-0.31;100.00;102322.88;5070149;28;20052;-51
2024/01/07 10:49:37;;;;;;;10.50;5.05;;;;;;;-0.29;100.00;102331.50;5071288;28;20040;-50
2024/01/07 10:52:07;;;;;;;9.02;5.03;;;;;;;-0.32;100.00;102328.91;5072408;28;20057;-51
2024/01/07 10:54:37;;;;;;;8.15;4.22;;;;;;;-0.28;100.00;102333.22;5070945;28;20055;-51
2024/01/07 10:57:23;;;;;;;8.98;5.00;;;;;;;-0.20;100.00;102339.28;5069291;28;20557;-50
2024/01/07 10:59:54;;;;;;;8.13;4.65;;;;;;;-0.18;100.00;102331.53;5071064;28;20032;-51
2024/01/07 11:02:23;;;;;;;8.60;5.00;;;;;;;-0.17;100.00;102338.44;5071168;28;20053;-50
2024/01/07 11:05:00;;;;;;;8.57;4.68;;;;;;;-0.20;100.00;102331.53;5073909;28;20071;-53
2024/01/07 11:07:37;;;;;;;9.93;4.70;;;;;;;-0.13;100.00;102342.75;5071484;28;20048;-50
2024/01/07 11:10:11;;;;;;;8.63;4.97;;;;;;;-0.10;100.00;102339.31;5070946;28;20128;-51
2024/01/07 11:12:44;;;;;;;8.75;4.72;;;;;;;-0.07;100.00;102350.56;5070188;28;20055;-54
2024/01/07 11:15:12;;;;;;;9.40;4.53;;;;;;;0.02;100.00;102354.88;5070610;28;20044;-53